sensor_id;sensor_type;location;lat;lon;timestamp;P1;durP1;ratioP1;P2;durP2;ratioP2
10645;SDS011;5371;49.782;9.932;2022-12-29T00:00:06;3.00;;;2.17;;
10645;SDS011;5371;49.782;9.932;2022-12-29T00:02:41;2.67;;;2.30;;
10645;SDS011;5371;49.782;9.932;2022-12-29T00:05:08;3.60;;;2.57;;
10645;SDS011;5371;49.782;9.932;2022-12-29T00:07:35;4.00;;;2.27;;
10645;SDS011;5371;49.782;9.932;2022-12-29T00:10:03;3.37;;;2.20;;
10645;SDS011;5371;49.782;9.932;2022-12-29T00:12:32;4.13;;;2.70;;
10645;SDS011;5371;49.782;9.932;2022-12-29T00:15:14;4.07;;;2.70;;
10645;SDS011;5371;49.782;9.932;2022-12-29T00:18:00;5.83;;;2.60;;
10645;SDS011;5371;49.782;9.932;2022-12-29T00:20:27;3.73;;;2.70;;
10645;SDS011;5371;49.782;9.932;2022-12-29T00:23:10;4.20;;;2.50;;
10645;SDS011;5371;49.782;9.932;2022-12-29T00:25:54;3.73;;;2.60;;
10645;SDS011;5371;49.782;9.932;2022-12-29T00:28:39;4.07;;;2.40;;
10645;SDS011;5371;49.782;9.932;2022-12-29T00:31:24;3.47;;;2.40;;
10645;SDS011;5371;49.782;9.932;2022-12-29T00:34:11;3.43;;;2.60;;
10645;SDS011;5371;49.782;9.932;2022-12-29T00:36:55;3.13;;;2.23;;
10645;SDS011;5371;49.782;9.932;2022-12-29T00:39:23;3.60;;;2.53;;
10645;SDS011;5371;49.782;9.932;2022-12-29T00:42:08;3.57;;;2.40;;
10645;SDS011;5371;49.782;9.932;2022-12-29T00:44:58;4.13;;;2.30;;
10645;SDS011;5371;49.782;9.932;2022-12-29T00:47:25;2.80;;;2.17;;
10645;SDS011;5371;49.782;9.932;2022-12-29T00:49:53;3.77;;;2.70;;
10645;SDS011;5371;49.782;9.932;2022-12-29T00:52:21;3.43;;;2.47;;
10645;SDS011;5371;49.782;9.932;2022-12-29T00:54:47;3.90;;;2.50;;
10645;SDS011;5371;49.782;9.932;2022-12-29T00:57:14;5.70;;;2.40;;
10645;SDS011;5371;49.782;9.932;2022-12-29T00:59:41;4.83;;;2.40;;
10645;SDS011;5371;49.782;9.932;2022-12-29T01:02:09;3.67;;;2.40;;
10645;SDS011;5371;49.782;9.932;2022-12-29T01:04:36;3.67;;;2.50;;
10645;SDS011;5371;49.782;9.932;2022-12-29T01:07:05;3.67;;;2.50;;
10645;SDS011;5371;49.782;9.932;2022-12-29T01:09:31;3.17;;;2.20;;
10645;SDS011;5371;49.782;9.932;2022-12-29T01:12:16;4.43;;;2.63;;
10645;SDS011;5371;49.782;9.932;2022-12-29T01:15:03;3.63;;;2.50;;
10645;SDS011;5371;49.782;9.932;2022-12-29T01:17:31;3.60;;;2.30;;
10645;SDS011;5371;49.782;9.932;2022-12-29T01:19:58;3.17;;;2.27;;
10645;SDS011;5371;49.782;9.932;2022-12-29T01:22:27;4.20;;;2.23;;
10645;SDS011;5371;49.782;9.932;2022-12-29T01:24:54;2.70;;;2.10;;
10645;SDS011;5371;49.782;9.932;2022-12-29T01:27:21;3.63;;;2.30;;
10645;SDS011;5371;49.782;9.932;2022-12-29T01:29:49;3.50;;;2.10;;
10645;SDS011;5371;49.782;9.932;2022-12-29T01:32:18;3.00;;;2.27;;
10645;SDS011;5371;49.782;9.932;2022-12-29T01:34:45;4.70;;;2.70;;
10645;SDS011;5371;49.782;9.932;2022-12-29T01:37:12;2.83;;;2.23;;
10645;SDS011;5371;49.782;9.932;2022-12-29T01:39:40;3.40;;;2.30;;
10645;SDS011;5371;49.782;9.932;2022-12-29T01:42:10;3.53;;;2.13;;
10645;SDS011;5371;49.782;9.932;2022-12-29T01:44:46;3.33;;;2.30;;
10645;SDS011;5371;49.782;9.932;2022-12-29T01:47:18;2.37;;;2.03;;
10645;SDS011;5371;49.782;9.932;2022-12-29T01:50:03;5.37;;;2.10;;
10645;SDS011;5371;49.782;9.932;2022-12-29T01:52:33;3.23;;;1.93;;
10645;SDS011;5371;49.782;9.932;2022-12-29T01:55:06;4.33;;;2.00;;
10645;SDS011;5371;49.782;9.932;2022-12-29T01:57:39;4.00;;;2.20;;
10645;SDS011;5371;49.782;9.932;2022-12-29T02:00:11;2.70;;;2.10;;
10645;SDS011;5371;49.782;9.932;2022-12-29T02:02:39;4.33;;;2.00;;
10645;SDS011;5371;49.782;9.932;2022-12-29T02:05:10;2.50;;;1.70;;
10645;SDS011;5371;49.782;9.932;2022-12-29T02:07:40;4.33;;;1.80;;
10645;SDS011;5371;49.782;9.932;2022-12-29T02:10:10;4.83;;;1.87;;
10645;SDS011;5371;49.782;9.932;2022-12-29T02:12:37;4.17;;;1.80;;
10645;SDS011;5371;49.782;9.932;2022-12-29T02:15:05;3.53;;;1.90;;
10645;SDS011;5371;49.782;9.932;2022-12-29T02:17:38;2.00;;;1.80;;
10645;SDS011;5371;49.782;9.932;2022-12-29T02:23:18;4.90;;;2.23;;
10645;SDS011;5371;49.782;9.932;2022-12-29T02:26:18;3.53;;;1.70;;
10645;SDS011;5371;49.782;9.932;2022-12-29T02:29:21;2.33;;;1.80;;
10645;SDS011;5371;49.782;9.932;2022-12-29T02:32:15;3.13;;;1.80;;
10645;SDS011;5371;49.782;9.932;2022-12-29T02:34:50;2.40;;;1.80;;
10645;SDS011;5371;49.782;9.932;2022-12-29T02:37:24;2.43;;;1.90;;
10645;SDS011;5371;49.782;9.932;2022-12-29T02:39:56;3.67;;;2.00;;
10645;SDS011;5371;49.782;9.932;2022-12-29T02:42:33;2.93;;;1.90;;
10645;SDS011;5371;49.782;9.932;2022-12-29T02:45:12;4.00;;;1.90;;
10645;SDS011;5371;49.782;9.932;2022-12-29T02:47:47;3.73;;;2.10;;
10645;SDS011;5371;49.782;9.932;2022-12-29T02:50:19;2.73;;;2.13;;
10645;SDS011;5371;49.782;9.932;2022-12-29T02:52:50;4.93;;;2.10;;
10645;SDS011;5371;49.782;9.932;2022-12-29T02:55:21;3.37;;;1.90;;
10645;SDS011;5371;49.782;9.932;2022-12-29T02:57:48;3.20;;;1.80;;
10645;SDS011;5371;49.782;9.932;2022-12-29T03:00:16;5.07;;;1.90;;
10645;SDS011;5371;49.782;9.932;2022-12-29T03:05:48;5.00;;;2.10;;
10645;SDS011;5371;49.782;9.932;2022-12-29T03:08:28;3.13;;;2.00;;
10645;SDS011;5371;49.782;9.932;2022-12-29T03:11:02;2.87;;;2.00;;
10645;SDS011;5371;49.782;9.932;2022-12-29T03:13:34;4.67;;;2.03;;
10645;SDS011;5371;49.782;9.932;2022-12-29T03:16:28;4.10;;;2.20;;
10645;SDS011;5371;49.782;9.932;2022-12-29T03:19:04;2.97;;;2.10;;
10645;SDS011;5371;49.782;9.932;2022-12-29T03:21:37;3.77;;;2.17;;
10645;SDS011;5371;49.782;9.932;2022-12-29T03:24:29;2.90;;;2.17;;
10645;SDS011;5371;49.782;9.932;2022-12-29T03:26:59;3.80;;;2.00;;
10645;SDS011;5371;49.782;9.932;2022-12-29T03:29:35;3.30;;;2.17;;
10645;SDS011;5371;49.782;9.932;2022-12-29T03:32:06;3.63;;;2.10;;
10645;SDS011;5371;49.782;9.932;2022-12-29T03:34:37;4.53;;;2.53;;
10645;SDS011;5371;49.782;9.932;2022-12-29T03:37:06;5.00;;;2.20;;
10645;SDS011;5371;49.782;9.932;2022-12-29T03:39:37;3.67;;;2.23;;
10645;SDS011;5371;49.782;9.932;2022-12-29T03:42:06;3.43;;;2.17;;
10645;SDS011;5371;49.782;9.932;2022-12-29T03:44:38;3.93;;;2.13;;
10645;SDS011;5371;49.782;9.932;2022-12-29T03:47:09;5.77;;;2.33;;
10645;SDS011;5371;49.782;9.932;2022-12-29T03:49:38;4.53;;;2.23;;
10645;SDS011;5371;49.782;9.932;2022-12-29T03:52:06;4.87;;;2.13;;
10645;SDS011;5371;49.782;9.932;2022-12-29T03:54:39;2.77;;;1.87;;
10645;SDS011;5371;49.782;9.932;2022-12-29T03:57:06;2.80;;;2.00;;
10645;SDS011;5371;49.782;9.932;2022-12-29T03:59:44;4.13;;;2.00;;
10645;SDS011;5371;49.782;9.932;2022-12-29T04:02:11;2.87;;;1.80;;
10645;SDS011;5371;49.782;9.932;2022-12-29T04:04:40;4.00;;;1.90;;
10645;SDS011;5371;49.782;9.932;2022-12-29T04:07:06;3.63;;;1.70;;
10645;SDS011;5371;49.782;9.932;2022-12-29T04:09:33;3.20;;;1.90;;
10645;SDS011;5371;49.782;9.932;2022-12-29T04:12:01;5.27;;;1.80;;
10645;SDS011;5371;49.782;9.932;2022-12-29T04:14:29;2.33;;;1.70;;
10645;SDS011;5371;49.782;9.932;2022-12-29T04:16:56;3.33;;;2.30;;
10645;SDS011;5371;49.782;9.932;2022-12-29T04:19:23;2.70;;;1.87;;
10645;SDS011;5371;49.782;9.932;2022-12-29T04:21:51;4.70;;;1.80;;
10645;SDS011;5371;49.782;9.932;2022-12-29T04:24:18;2.27;;;1.90;;
10645;SDS011;5371;49.782;9.932;2022-12-29T04:26:48;2.83;;;1.90;;
10645;SDS011;5371;49.782;9.932;2022-12-29T04:29:40;3.23;;;1.90;;
10645;SDS011;5371;49.782;9.932;2022-12-29T04:32:27;5.77;;;2.00;;
10645;SDS011;5371;49.782;9.932;2022-12-29T04:34:55;4.97;;;2.30;;
10645;SDS011;5371;49.782;9.932;2022-12-29T04:37:23;5.27;;;2.50;;
10645;SDS011;5371;49.782;9.932;2022-12-29T04:39:51;4.20;;;1.80;;
10645;SDS011;5371;49.782;9.932;2022-12-29T04:42:17;3.50;;;1.80;;
10645;SDS011;5371;49.782;9.932;2022-12-29T04:44:45;4.77;;;1.73;;
10645;SDS011;5371;49.782;9.932;2022-12-29T04:47:19;4.20;;;2.10;;
10645;SDS011;5371;49.782;9.932;2022-12-29T04:50:21;2.00;;;1.80;;
10645;SDS011;5371;49.782;9.932;2022-12-29T04:53:10;3.30;;;1.90;;
10645;SDS011;5371;49.782;9.932;2022-12-29T04:55:37;3.07;;;1.80;;
10645;SDS011;5371;49.782;9.932;2022-12-29T04:58:03;3.40;;;1.90;;
10645;SDS011;5371;49.782;9.932;2022-12-29T05:00:32;3.73;;;1.77;;
10645;SDS011;5371;49.782;9.932;2022-12-29T05:03:00;2.67;;;1.70;;
10645;SDS011;5371;49.782;9.932;2022-12-29T05:05:28;2.23;;;1.70;;
10645;SDS011;5371;49.782;9.932;2022-12-29T05:07:56;3.33;;;1.80;;
10645;SDS011;5371;49.782;9.932;2022-12-29T05:10:25;4.00;;;1.80;;
10645;SDS011;5371;49.782;9.932;2022-12-29T05:12:53;2.63;;;1.70;;
10645;SDS011;5371;49.782;9.932;2022-12-29T05:15:20;5.30;;;1.90;;
10645;SDS011;5371;49.782;9.932;2022-12-29T05:17:47;4.03;;;1.93;;
10645;SDS011;5371;49.782;9.932;2022-12-29T05:20:15;2.67;;;1.50;;
10645;SDS011;5371;49.782;9.932;2022-12-29T05:22:42;4.17;;;1.90;;
10645;SDS011;5371;49.782;9.932;2022-12-29T05:25:09;2.80;;;1.73;;
10645;SDS011;5371;49.782;9.932;2022-12-29T05:27:51;3.53;;;1.70;;
10645;SDS011;5371;49.782;9.932;2022-12-29T05:30:29;4.80;;;1.70;;
10645;SDS011;5371;49.782;9.932;2022-12-29T05:32:56;3.77;;;1.90;;
10645;SDS011;5371;49.782;9.932;2022-12-29T05:35:23;2.20;;;1.60;;
10645;SDS011;5371;49.782;9.932;2022-12-29T05:37:50;1.87;;;1.50;;
10645;SDS011;5371;49.782;9.932;2022-12-29T05:40:17;2.77;;;1.80;;
10645;SDS011;5371;49.782;9.932;2022-12-29T05:42:44;3.83;;;2.00;;
10645;SDS011;5371;49.782;9.932;2022-12-29T05:45:20;3.73;;;1.80;;
10645;SDS011;5371;49.782;9.932;2022-12-29T05:47:59;2.73;;;1.80;;
10645;SDS011;5371;49.782;9.932;2022-12-29T05:50:46;5.53;;;1.60;;
10645;SDS011;5371;49.782;9.932;2022-12-29T05:53:15;3.67;;;2.13;;
10645;SDS011;5371;49.782;9.932;2022-12-29T05:55:43;2.53;;;1.60;;
10645;SDS011;5371;49.782;9.932;2022-12-29T05:58:10;3.40;;;1.70;;
10645;SDS011;5371;49.782;9.932;2022-12-29T06:00:39;4.40;;;1.70;;
10645;SDS011;5371;49.782;9.932;2022-12-29T06:03:07;4.87;;;1.87;;
10645;SDS011;5371;49.782;9.932;2022-12-29T06:05:34;3.33;;;1.80;;
10645;SDS011;5371;49.782;9.932;2022-12-29T06:08:01;4.03;;;1.60;;
10645;SDS011;5371;49.782;9.932;2022-12-29T06:10:29;3.33;;;2.07;;
10645;SDS011;5371;49.782;9.932;2022-12-29T06:13:03;4.03;;;1.90;;
10645;SDS011;5371;49.782;9.932;2022-12-29T06:15:31;3.23;;;1.60;;
10645;SDS011;5371;49.782;9.932;2022-12-29T06:18:00;2.87;;;1.70;;
10645;SDS011;5371;49.782;9.932;2022-12-29T06:20:27;2.77;;;1.50;;
10645;SDS011;5371;49.782;9.932;2022-12-29T06:22:54;3.70;;;1.80;;
10645;SDS011;5371;49.782;9.932;2022-12-29T06:25:22;4.80;;;1.77;;
10645;SDS011;5371;49.782;9.932;2022-12-29T06:27:49;3.97;;;1.70;;
10645;SDS011;5371;49.782;9.932;2022-12-29T06:30:16;3.03;;;1.60;;
10645;SDS011;5371;49.782;9.932;2022-12-29T06:32:44;4.17;;;1.67;;
10645;SDS011;5371;49.782;9.932;2022-12-29T06:35:13;2.57;;;1.50;;
10645;SDS011;5371;49.782;9.932;2022-12-29T06:37:46;3.27;;;1.40;;
10645;SDS011;5371;49.782;9.932;2022-12-29T06:40:13;3.60;;;1.60;;
10645;SDS011;5371;49.782;9.932;2022-12-29T06:43:12;3.67;;;1.60;;
10645;SDS011;5371;49.782;9.932;2022-12-29T06:45:55;3.33;;;1.87;;
10645;SDS011;5371;49.782;9.932;2022-12-29T06:48:22;2.60;;;1.37;;
10645;SDS011;5371;49.782;9.932;2022-12-29T06:50:50;3.17;;;1.63;;
10645;SDS011;5371;49.782;9.932;2022-12-29T06:53:17;3.07;;;1.63;;
10645;SDS011;5371;49.782;9.932;2022-12-29T06:55:44;2.37;;;1.40;;
10645;SDS011;5371;49.782;9.932;2022-12-29T06:58:11;4.20;;;1.70;;
10645;SDS011;5371;49.782;9.932;2022-12-29T07:00:37;2.53;;;1.33;;
10645;SDS011;5371;49.782;9.932;2022-12-29T07:03:05;2.55;;;1.40;;
10645;SDS011;5371;49.782;9.932;2022-12-29T07:05:32;2.53;;;1.70;;
10645;SDS011;5371;49.782;9.932;2022-12-29T07:08:00;4.50;;;1.87;;
10645;SDS011;5371;49.782;9.932;2022-12-29T07:10:27;2.55;;;1.52;;
10645;SDS011;5371;49.782;9.932;2022-12-29T07:12:54;4.10;;;1.50;;
10645;SDS011;5371;49.782;9.932;2022-12-29T07:15:21;5.67;;;1.50;;
10645;SDS011;5371;49.782;9.932;2022-12-29T07:17:48;2.72;;;1.60;;
10645;SDS011;5371;49.782;9.932;2022-12-29T07:20:16;2.00;;;1.40;;
10645;SDS011;5371;49.782;9.932;2022-12-29T07:22:43;2.67;;;1.50;;
10645;SDS011;5371;49.782;9.932;2022-12-29T07:25:11;3.00;;;1.48;;
10645;SDS011;5371;49.782;9.932;2022-12-29T07:27:38;1.48;;;1.25;;
10645;SDS011;5371;49.782;9.932;2022-12-29T07:30:06;3.42;;;1.20;;
10645;SDS011;5371;49.782;9.932;2022-12-29T07:32:33;3.25;;;1.50;;
10645;SDS011;5371;49.782;9.932;2022-12-29T07:35:00;2.10;;;1.50;;
10645;SDS011;5371;49.782;9.932;2022-12-29T07:37:27;3.60;;;1.70;;
10645;SDS011;5371;49.782;9.932;2022-12-29T07:39:54;2.40;;;1.52;;
10645;SDS011;5371;49.782;9.932;2022-12-29T07:42:23;2.97;;;2.10;;
10645;SDS011;5371;49.782;9.932;2022-12-29T07:44:51;4.10;;;1.88;;
10645;SDS011;5371;49.782;9.932;2022-12-29T07:47:25;2.78;;;1.75;;
10645;SDS011;5371;49.782;9.932;2022-12-29T07:49:52;3.75;;;1.83;;
10645;SDS011;5371;49.782;9.932;2022-12-29T07:52:19;3.23;;;1.60;;
10645;SDS011;5371;49.782;9.932;2022-12-29T07:54:46;2.93;;;1.77;;
10645;SDS011;5371;49.782;9.932;2022-12-29T07:57:13;5.35;;;1.75;;
10645;SDS011;5371;49.782;9.932;2022-12-29T07:59:41;2.78;;;1.80;;
10645;SDS011;5371;49.782;9.932;2022-12-29T08:02:09;2.17;;;1.67;;
10645;SDS011;5371;49.782;9.932;2022-12-29T08:04:36;3.58;;;1.92;;
10645;SDS011;5371;49.782;9.932;2022-12-29T08:07:03;3.47;;;1.70;;
10645;SDS011;5371;49.782;9.932;2022-12-29T08:09:30;2.65;;;1.50;;
10645;SDS011;5371;49.782;9.932;2022-12-29T08:11:57;2.20;;;1.45;;
10645;SDS011;5371;49.782;9.932;2022-12-29T08:14:24;2.78;;;1.63;;
10645;SDS011;5371;49.782;9.932;2022-12-29T08:16:52;3.22;;;1.48;;
10645;SDS011;5371;49.782;9.932;2022-12-29T08:19:19;2.20;;;1.57;;
10645;SDS011;5371;49.782;9.932;2022-12-29T08:21:46;2.30;;;1.50;;
10645;SDS011;5371;49.782;9.932;2022-12-29T08:24:13;5.95;;;1.50;;
10645;SDS011;5371;49.782;9.932;2022-12-29T08:26:40;4.00;;;1.45;;
10645;SDS011;5371;49.782;9.932;2022-12-29T08:29:07;2.88;;;1.50;;
10645;SDS011;5371;49.782;9.932;2022-12-29T08:31:34;4.13;;;1.70;;
10645;SDS011;5371;49.782;9.932;2022-12-29T08:34:02;4.03;;;1.85;;
10645;SDS011;5371;49.782;9.932;2022-12-29T08:36:30;6.07;;;1.90;;
10645;SDS011;5371;49.782;9.932;2022-12-29T08:38:57;2.47;;;1.75;;
10645;SDS011;5371;49.782;9.932;2022-12-29T08:41:24;3.80;;;1.90;;
10645;SDS011;5371;49.782;9.932;2022-12-29T08:43:51;3.42;;;1.80;;
10645;SDS011;5371;49.782;9.932;2022-12-29T08:46:18;4.40;;;2.00;;
10645;SDS011;5371;49.782;9.932;2022-12-29T08:48:45;1.90;;;1.70;;
10645;SDS011;5371;49.782;9.932;2022-12-29T08:51:13;3.13;;;1.80;;
10645;SDS011;5371;49.782;9.932;2022-12-29T08:53:40;3.67;;;1.75;;
10645;SDS011;5371;49.782;9.932;2022-12-29T08:56:08;2.65;;;2.00;;
10645;SDS011;5371;49.782;9.932;2022-12-29T08:58:46;3.47;;;1.73;;
10645;SDS011;5371;49.782;9.932;2022-12-29T09:01:13;3.55;;;1.80;;
10645;SDS011;5371;49.782;9.932;2022-12-29T09:03:40;3.42;;;1.92;;
10645;SDS011;5371;49.782;9.932;2022-12-29T09:06:06;4.63;;;1.60;;
10645;SDS011;5371;49.782;9.932;2022-12-29T09:08:35;3.25;;;1.40;;
10645;SDS011;5371;49.782;9.932;2022-12-29T09:11:05;2.47;;;1.58;;
10645;SDS011;5371;49.782;9.932;2022-12-29T09:13:33;3.65;;;1.60;;
10645;SDS011;5371;49.782;9.932;2022-12-29T09:16:00;3.67;;;1.58;;
10645;SDS011;5371;49.782;9.932;2022-12-29T09:18:27;2.45;;;1.50;;
10645;SDS011;5371;49.782;9.932;2022-12-29T09:20:55;2.13;;;1.40;;
10645;SDS011;5371;49.782;9.932;2022-12-29T09:23:23;3.15;;;1.60;;
10645;SDS011;5371;49.782;9.932;2022-12-29T09:25:51;1.92;;;1.33;;
10645;SDS011;5371;49.782;9.932;2022-12-29T09:28:18;2.05;;;1.60;;
10645;SDS011;5371;49.782;9.932;2022-12-29T09:30:46;2.45;;;1.58;;
10645;SDS011;5371;49.782;9.932;2022-12-29T09:33:13;4.45;;;1.73;;
10645;SDS011;5371;49.782;9.932;2022-12-29T09:35:41;1.80;;;1.55;;
10645;SDS011;5371;49.782;9.932;2022-12-29T09:38:09;4.25;;;1.70;;
10645;SDS011;5371;49.782;9.932;2022-12-29T09:40:36;3.10;;;1.67;;
10645;SDS011;5371;49.782;9.932;2022-12-29T09:46:07;1.80;;;1.50;;
10645;SDS011;5371;49.782;9.932;2022-12-29T09:48:44;2.47;;;1.83;;
10645;SDS011;5371;49.782;9.932;2022-12-29T09:51:16;5.20;;;1.80;;
10645;SDS011;5371;49.782;9.932;2022-12-29T09:53:49;3.15;;;1.67;;
10645;SDS011;5371;49.782;9.932;2022-12-29T09:56:21;2.53;;;1.40;;
10645;SDS011;5371;49.782;9.932;2022-12-29T09:58:52;4.75;;;1.73;;
10645;SDS011;5371;49.782;9.932;2022-12-29T10:01:27;3.25;;;1.80;;
10645;SDS011;5371;49.782;9.932;2022-12-29T10:03:59;3.00;;;1.70;;
10645;SDS011;5371;49.782;9.932;2022-12-29T10:06:32;5.03;;;1.88;;
10645;SDS011;5371;49.782;9.932;2022-12-29T10:09:08;2.00;;;1.45;;
10645;SDS011;5371;49.782;9.932;2022-12-29T10:11:47;3.10;;;1.65;;
10645;SDS011;5371;49.782;9.932;2022-12-29T10:14:31;1.92;;;1.60;;
10645;SDS011;5371;49.782;9.932;2022-12-29T10:17:08;4.15;;;1.60;;
10645;SDS011;5371;49.782;9.932;2022-12-29T10:19:52;4.20;;;1.67;;
10645;SDS011;5371;49.782;9.932;2022-12-29T10:22:35;7.68;;;1.83;;
10645;SDS011;5371;49.782;9.932;2022-12-29T10:25:12;5.10;;;1.98;;
10645;SDS011;5371;49.782;9.932;2022-12-29T10:27:46;3.30;;;1.88;;
10645;SDS011;5371;49.782;9.932;2022-12-29T10:30:16;2.65;;;1.70;;
10645;SDS011;5371;49.782;9.932;2022-12-29T10:32:45;3.33;;;1.83;;
10645;SDS011;5371;49.782;9.932;2022-12-29T10:35:16;4.35;;;1.90;;
10645;SDS011;5371;49.782;9.932;2022-12-29T10:37:47;2.30;;;1.60;;
10645;SDS011;5371;49.782;9.932;2022-12-29T10:40:23;3.38;;;1.90;;
10645;SDS011;5371;49.782;9.932;2022-12-29T10:42:54;1.60;;;1.50;;
10645;SDS011;5371;49.782;9.932;2022-12-29T10:45:25;3.63;;;1.75;;
10645;SDS011;5371;49.782;9.932;2022-12-29T10:47:57;2.83;;;1.65;;
10645;SDS011;5371;49.782;9.932;2022-12-29T10:50:28;3.63;;;1.80;;
10645;SDS011;5371;49.782;9.932;2022-12-29T10:52:56;2.58;;;1.55;;
10645;SDS011;5371;49.782;9.932;2022-12-29T10:55:26;2.42;;;1.45;;
10645;SDS011;5371;49.782;9.932;2022-12-29T10:57:55;2.53;;;1.60;;
10645;SDS011;5371;49.782;9.932;2022-12-29T11:00:27;5.68;;;1.85;;
10645;SDS011;5371;49.782;9.932;2022-12-29T11:05:57;2.10;;;1.52;;
10645;SDS011;5371;49.782;9.932;2022-12-29T11:08:30;3.47;;;1.70;;
10645;SDS011;5371;49.782;9.932;2022-12-29T11:11:02;2.95;;;1.60;;
10645;SDS011;5371;49.782;9.932;2022-12-29T11:13:30;3.63;;;1.60;;
10645;SDS011;5371;49.782;9.932;2022-12-29T11:16:00;4.03;;;1.80;;
10645;SDS011;5371;49.782;9.932;2022-12-29T11:18:31;4.00;;;1.80;;
10645;SDS011;5371;49.782;9.932;2022-12-29T11:21:02;3.55;;;1.85;;
10645;SDS011;5371;49.782;9.932;2022-12-29T11:23:31;3.08;;;1.90;;
10645;SDS011;5371;49.782;9.932;2022-12-29T11:26:07;2.22;;;1.73;;
10645;SDS011;5371;49.782;9.932;2022-12-29T11:28:39;2.30;;;1.83;;
10645;SDS011;5371;49.782;9.932;2022-12-29T11:31:10;3.97;;;1.63;;
10645;SDS011;5371;49.782;9.932;2022-12-29T11:33:42;5.15;;;1.80;;
10645;SDS011;5371;49.782;9.932;2022-12-29T11:36:10;4.90;;;1.90;;
10645;SDS011;5371;49.782;9.932;2022-12-29T11:38:42;3.50;;;1.67;;
10645;SDS011;5371;49.782;9.932;2022-12-29T11:41:13;2.30;;;1.70;;
10645;SDS011;5371;49.782;9.932;2022-12-29T11:43:47;3.53;;;1.80;;
10645;SDS011;5371;49.782;9.932;2022-12-29T11:46:17;2.80;;;1.77;;
10645;SDS011;5371;49.782;9.932;2022-12-29T11:48:46;2.35;;;1.90;;
10645;SDS011;5371;49.782;9.932;2022-12-29T11:51:20;4.05;;;2.00;;
10645;SDS011;5371;49.782;9.932;2022-12-29T11:53:49;2.50;;;1.77;;
10645;SDS011;5371;49.782;9.932;2022-12-29T11:56:20;4.10;;;1.92;;
10645;SDS011;5371;49.782;9.932;2022-12-29T11:58:57;3.17;;;2.10;;
10645;SDS011;5371;49.782;9.932;2022-12-29T12:01:27;2.65;;;1.83;;
10645;SDS011;5371;49.782;9.932;2022-12-29T12:04:01;3.45;;;2.00;;
10645;SDS011;5371;49.782;9.932;2022-12-29T12:06:33;3.10;;;1.75;;
10645;SDS011;5371;49.782;9.932;2022-12-29T12:09:10;2.35;;;1.45;;
10645;SDS011;5371;49.782;9.932;2022-12-29T12:11:43;4.05;;;1.73;;
10645;SDS011;5371;49.782;9.932;2022-12-29T12:14:12;3.50;;;1.77;;
10645;SDS011;5371;49.782;9.932;2022-12-29T12:17:09;3.60;;;1.95;;
10645;SDS011;5371;49.782;9.932;2022-12-29T12:19:41;4.03;;;1.50;;
10645;SDS011;5371;49.782;9.932;2022-12-29T12:22:13;2.83;;;1.40;;
10645;SDS011;5371;49.782;9.932;2022-12-29T12:24:47;2.10;;;1.33;;
10645;SDS011;5371;49.782;9.932;2022-12-29T12:27:18;3.45;;;1.88;;
10645;SDS011;5371;49.782;9.932;2022-12-29T12:29:50;2.63;;;1.52;;
10645;SDS011;5371;49.782;9.932;2022-12-29T12:32:24;2.55;;;1.33;;
10645;SDS011;5371;49.782;9.932;2022-12-29T12:35:00;3.47;;;1.42;;
10645;SDS011;5371;49.782;9.932;2022-12-29T12:37:35;3.70;;;1.63;;
10645;SDS011;5371;49.782;9.932;2022-12-29T12:40:23;2.92;;;1.50;;
10645;SDS011;5371;49.782;9.932;2022-12-29T12:43:05;3.22;;;1.80;;
10645;SDS011;5371;49.782;9.932;2022-12-29T12:45:48;1.60;;;1.33;;
10645;SDS011;5371;49.782;9.932;2022-12-29T12:48:31;2.50;;;1.42;;
10645;SDS011;5371;49.782;9.932;2022-12-29T12:51:14;3.78;;;1.50;;
10645;SDS011;5371;49.782;9.932;2022-12-29T12:53:56;2.70;;;1.40;;
10645;SDS011;5371;49.782;9.932;2022-12-29T12:56:41;3.35;;;1.40;;
10645;SDS011;5371;49.782;9.932;2022-12-29T12:59:17;3.00;;;1.40;;
10645;SDS011;5371;49.782;9.932;2022-12-29T13:02:06;1.50;;;1.30;;
10645;SDS011;5371;49.782;9.932;2022-12-29T13:07:47;3.17;;;1.63;;
10645;SDS011;5371;49.782;9.932;2022-12-29T13:10:26;2.25;;;1.33;;
10645;SDS011;5371;49.782;9.932;2022-12-29T13:13:07;2.88;;;1.50;;
10645;SDS011;5371;49.782;9.932;2022-12-29T13:15:48;3.03;;;1.55;;
10645;SDS011;5371;49.782;9.932;2022-12-29T13:18:21;3.28;;;1.40;;
10645;SDS011;5371;49.782;9.932;2022-12-29T13:20:59;2.45;;;1.52;;
10645;SDS011;5371;49.782;9.932;2022-12-29T13:23:34;3.75;;;1.40;;
10645;SDS011;5371;49.782;9.932;2022-12-29T13:26:08;1.90;;;1.40;;
10645;SDS011;5371;49.782;9.932;2022-12-29T13:28:46;2.95;;;1.40;;
10645;SDS011;5371;49.782;9.932;2022-12-29T13:31:24;2.42;;;1.38;;
10645;SDS011;5371;49.782;9.932;2022-12-29T13:34:01;4.05;;;1.40;;
10645;SDS011;5371;49.782;9.932;2022-12-29T13:36:38;3.15;;;1.40;;
10645;SDS011;5371;49.782;9.932;2022-12-29T13:39:11;4.43;;;1.50;;
10645;SDS011;5371;49.782;9.932;2022-12-29T13:41:44;2.85;;;1.63;;
10645;SDS011;5371;49.782;9.932;2022-12-29T13:44:16;3.83;;;1.50;;
10645;SDS011;5371;49.782;9.932;2022-12-29T13:46:47;1.73;;;1.20;;
10645;SDS011;5371;49.782;9.932;2022-12-29T13:49:17;3.60;;;1.50;;
10645;SDS011;5371;49.782;9.932;2022-12-29T13:51:47;1.95;;;1.27;;
10645;SDS011;5371;49.782;9.932;2022-12-29T13:54:22;3.22;;;1.08;;
10645;SDS011;5371;49.782;9.932;2022-12-29T13:56:56;4.38;;;1.50;;
10645;SDS011;5371;49.782;9.932;2022-12-29T13:59:36;3.78;;;1.20;;
10645;SDS011;5371;49.782;9.932;2022-12-29T14:02:10;4.07;;;1.20;;
10645;SDS011;5371;49.782;9.932;2022-12-29T14:07:27;3.45;;;1.48;;
10645;SDS011;5371;49.782;9.932;2022-12-29T14:09:56;2.75;;;1.30;;
10645;SDS011;5371;49.782;9.932;2022-12-29T14:12:28;1.42;;;1.00;;
10645;SDS011;5371;49.782;9.932;2022-12-29T14:15:14;1.85;;;1.10;;
10645;SDS011;5371;49.782;9.932;2022-12-29T14:18:04;1.70;;;1.10;;
10645;SDS011;5371;49.782;9.932;2022-12-29T14:20:38;1.60;;;1.08;;
10645;SDS011;5371;49.782;9.932;2022-12-29T14:23:17;1.85;;;0.90;;
10645;SDS011;5371;49.782;9.932;2022-12-29T14:26:09;2.15;;;1.02;;
10645;SDS011;5371;49.782;9.932;2022-12-29T14:28:39;4.38;;;1.27;;
10645;SDS011;5371;49.782;9.932;2022-12-29T14:34:16;1.95;;;1.42;;
10645;SDS011;5371;49.782;9.932;2022-12-29T14:36:53;3.55;;;1.08;;
10645;SDS011;5371;49.782;9.932;2022-12-29T14:39:33;4.10;;;1.40;;
10645;SDS011;5371;49.782;9.932;2022-12-29T14:42:05;3.28;;;1.00;;
10645;SDS011;5371;49.782;9.932;2022-12-29T14:44:45;2.45;;;1.13;;
10645;SDS011;5371;49.782;9.932;2022-12-29T14:47:16;2.63;;;1.73;;
10645;SDS011;5371;49.782;9.932;2022-12-29T14:49:47;2.13;;;1.10;;
10645;SDS011;5371;49.782;9.932;2022-12-29T14:52:15;1.83;;;1.05;;
10645;SDS011;5371;49.782;9.932;2022-12-29T14:54:48;3.00;;;1.30;;
10645;SDS011;5371;49.782;9.932;2022-12-29T14:57:22;1.85;;;1.05;;
10645;SDS011;5371;49.782;9.932;2022-12-29T14:59:56;1.10;;;1.00;;
10645;SDS011;5371;49.782;9.932;2022-12-29T15:02:31;2.40;;;1.20;;
10645;SDS011;5371;49.782;9.932;2022-12-29T15:05:02;1.60;;;1.23;;
10645;SDS011;5371;49.782;9.932;2022-12-29T15:07:31;2.55;;;1.30;;
10645;SDS011;5371;49.782;9.932;2022-12-29T15:10:02;3.05;;;1.10;;
10645;SDS011;5371;49.782;9.932;2022-12-29T15:12:37;2.95;;;1.20;;
10645;SDS011;5371;49.782;9.932;2022-12-29T15:15:16;1.63;;;1.20;;
10645;SDS011;5371;49.782;9.932;2022-12-29T15:17:46;3.78;;;1.55;;
10645;SDS011;5371;49.782;9.932;2022-12-29T15:20:21;3.75;;;1.40;;
10645;SDS011;5371;49.782;9.932;2022-12-29T15:22:52;1.50;;;1.00;;
10645;SDS011;5371;49.782;9.932;2022-12-29T15:25:22;3.47;;;1.43;;
10645;SDS011;5371;49.782;9.932;2022-12-29T15:27:54;2.30;;;1.30;;
10645;SDS011;5371;49.782;9.932;2022-12-29T15:30:27;3.30;;;1.60;;
10645;SDS011;5371;49.782;9.932;2022-12-29T15:32:54;2.97;;;1.30;;
10645;SDS011;5371;49.782;9.932;2022-12-29T15:35:22;3.15;;;1.45;;
10645;SDS011;5371;49.782;9.932;2022-12-29T15:37:55;5.23;;;1.40;;
10645;SDS011;5371;49.782;9.932;2022-12-29T15:40:24;2.20;;;1.50;;
10645;SDS011;5371;49.782;9.932;2022-12-29T15:42:56;3.37;;;1.30;;
10645;SDS011;5371;49.782;9.932;2022-12-29T15:45:40;2.23;;;1.50;;
10645;SDS011;5371;49.782;9.932;2022-12-29T15:48:10;4.37;;;1.73;;
10645;SDS011;5371;49.782;9.932;2022-12-29T15:50:43;3.93;;;1.50;;